createdAt,value
2022-11-12T00:03:03.289Z,19.30
2022-11-12T00:05:51.160Z,15.82
2022-11-12T00:08:38.609Z,17.20
2022-11-12T00:11:25.510Z,15.70
2022-11-12T00:14:13.171Z,17.52
2022-11-12T00:17:00.418Z,15.52
2022-11-12T00:19:47.717Z,13.70
2022-11-12T00:22:34.978Z,14.32
2022-11-12T00:25:23.886Z,16.30
2022-11-12T00:28:11.677Z,15.93
2022-11-12T00:30:59.567Z,12.52
2022-11-12T00:33:46.929Z,16.00
2022-11-12T00:36:34.169Z,13.88
2022-11-12T00:39:21.218Z,13.93
2022-11-12T00:42:08.547Z,14.07
2022-11-12T00:44:55.869Z,12.20
2022-11-12T00:47:43.308Z,15.02
2022-11-12T00:50:30.740Z,16.42
2022-11-12T00:53:18.568Z,12.25
2022-11-12T00:56:07.260Z,13.18
2022-11-12T00:58:54.587Z,17.52
2022-11-12T01:01:41.939Z,14.43
2022-11-12T01:04:29.670Z,12.63
2022-11-12T01:07:16.600Z,13.68
2022-11-12T01:10:05.848Z,12.98
2022-11-12T01:12:52.730Z,13.70
2022-11-12T01:15:43.451Z,10.73
2022-11-12T01:18:30.789Z,10.60
2022-11-12T01:21:18.229Z,12.15
2022-11-12T01:24:05.772Z,13.88
2022-11-12T01:26:53.589Z,14.75
2022-11-12T01:29:41.274Z,13.98
2022-11-12T01:32:28.620Z,11.05
2022-11-12T01:35:15.630Z,12.23
2022-11-12T01:38:05.449Z,12.18
2022-11-12T01:40:52.598Z,13.05
2022-11-12T01:43:40.928Z,13.32
2022-11-12T01:46:29.229Z,10.63
2022-11-12T01:49:51.456Z,11.57
2022-11-12T01:52:50.543Z,12.23
2022-11-12T01:55:39.251Z,10.73
2022-11-12T01:58:28.535Z,10.70
2022-11-12T02:01:16.054Z,11.75
2022-11-12T02:04:03.068Z,10.45
2022-11-12T02:06:50.633Z,10.48
2022-11-12T02:09:37.608Z,10.52
2022-11-12T02:12:44.598Z,10.25
2022-11-12T02:15:31.718Z,10.13
2022-11-12T02:18:18.958Z,12.40
2022-11-12T02:21:10.399Z,11.52
2022-11-12T02:24:06.348Z,11.70
2022-11-12T02:26:55.368Z,11.27
2022-11-12T02:29:46.760Z,10.43
2022-11-12T02:32:34.100Z,10.40
2022-11-12T02:35:21.558Z,10.77
2022-11-12T02:38:08.618Z,10.23
2022-11-12T02:40:55.797Z,10.43
2022-11-12T02:43:43.767Z,8.98
2022-11-12T02:46:31.187Z,11.27
2022-11-12T02:49:17.978Z,11.20
2022-11-12T02:52:05.526Z,10.40
2022-11-12T02:54:52.667Z,13.95
2022-11-12T02:57:41.178Z,11.85
2022-11-12T03:00:28.097Z,11.07
2022-11-12T03:03:15.786Z,9.13
2022-11-12T03:06:02.713Z,9.07
2022-11-12T03:08:49.780Z,8.65
2022-11-12T03:11:37.037Z,13.40
2022-11-12T03:14:24.360Z,9.43
2022-11-12T03:17:11.259Z,9.38
2022-11-12T03:19:58.809Z,10.82
2022-11-12T03:23:01.057Z,7.68
2022-11-12T03:25:48.385Z,9.35
2022-11-12T03:28:35.576Z,10.15
2022-11-12T03:31:23.397Z,7.85
2022-11-12T03:34:12.070Z,9.05
2022-11-12T03:36:59.537Z,11.00
2022-11-12T03:39:46.618Z,8.82
2022-11-12T03:42:34.968Z,9.30
2022-11-12T03:45:24.338Z,8.25
2022-11-12T03:48:11.629Z,8.50
2022-11-12T03:50:59.857Z,6.75
2022-11-12T03:53:47.398Z,7.97
2022-11-12T03:56:34.950Z,9.15
2022-11-12T03:59:22.566Z,8.65
2022-11-12T04:02:14.665Z,8.07
2022-11-12T04:05:20.472Z,7.03
2022-11-12T04:08:35.927Z,6.53
2022-11-12T04:11:23.325Z,7.60
2022-11-12T04:14:10.026Z,8.18
2022-11-12T04:17:15.826Z,7.18
2022-11-12T04:20:21.235Z,6.00
2022-11-12T04:23:08.854Z,6.50
2022-11-12T04:26:14.296Z,8.85
2022-11-12T04:29:20.467Z,7.75
2022-11-12T04:32:07.644Z,8.13
2022-11-12T04:34:56.636Z,7.00
2022-11-12T04:37:46.926Z,11.38
2022-11-12T04:40:52.745Z,9.55
2022-11-12T04:44:00.236Z,8.85
2022-11-12T04:46:48.405Z,8.57
2022-11-12T04:49:35.475Z,7.63
2022-11-12T04:52:23.076Z,12.82
2022-11-12T04:55:11.245Z,9.07
2022-11-12T04:58:00.862Z,6.93
2022-11-12T05:00:49.198Z,7.65
2022-11-12T05:03:36.515Z,6.10
2022-11-12T05:06:42.075Z,9.32
2022-11-12T05:09:30.684Z,7.63
2022-11-12T05:12:17.704Z,8.18
2022-11-12T05:15:05.664Z,7.90
2022-11-12T05:17:53.070Z,9.90
2022-11-12T05:20:41.285Z,6.65
2022-11-12T05:23:28.165Z,10.25
2022-11-12T05:26:15.663Z,7.03
2022-11-12T05:29:07.546Z,5.88
2022-11-12T05:34:43.087Z,4.93
2022-11-12T05:37:30.525Z,6.18
2022-11-12T05:40:17.776Z,6.22
2022-11-12T05:43:05.065Z,5.35
2022-11-12T05:45:52.254Z,6.70
2022-11-12T05:48:39.625Z,7.25
2022-11-12T05:51:26.733Z,7.28
2022-11-12T05:54:14.194Z,5.03
2022-11-12T05:57:01.214Z,6.22
2022-11-12T05:59:48.718Z,6.78
2022-11-12T06:02:35.830Z,5.65
2022-11-12T06:05:22.984Z,5.85
2022-11-12T06:08:10.193Z,10.13
2022-11-12T06:10:57.747Z,6.53
2022-11-12T06:13:44.814Z,6.30
2022-11-12T06:16:32.284Z,7.20
2022-11-12T06:19:19.244Z,8.25
2022-11-12T06:22:06.457Z,6.22
2022-11-12T06:24:53.676Z,6.35
2022-11-12T06:27:41.946Z,6.88
2022-11-12T06:30:29.205Z,7.95
2022-11-12T06:33:16.364Z,8.77
2022-11-12T06:36:05.348Z,6.90
2022-11-12T06:38:52.626Z,7.45
2022-11-12T06:41:39.755Z,10.30
2022-11-12T06:44:28.704Z,8.43
2022-11-12T06:47:15.682Z,5.15
2022-11-12T06:50:03.105Z,6.00
2022-11-12T06:52:50.562Z,5.78
2022-11-12T06:55:38.213Z,7.53
2022-11-12T06:58:25.755Z,9.98
2022-11-12T07:01:17.717Z,5.63
2022-11-12T07:04:05.314Z,5.00
2022-11-12T07:06:52.800Z,5.97
2022-11-12T07:09:39.886Z,6.63
2022-11-12T07:12:27.325Z,8.35
2022-11-12T07:15:14.915Z,6.55
2022-11-12T07:18:02.285Z,5.47
2022-11-12T07:20:49.434Z,5.72
2022-11-12T07:23:37.286Z,6.95
2022-11-12T07:26:27.738Z,7.07
2022-11-12T07:29:30.024Z,6.63
2022-11-12T07:32:22.495Z,7.03
2022-11-12T07:35:11.145Z,8.68
2022-11-12T07:37:59.792Z,7.25
2022-11-12T07:40:47.685Z,6.65
2022-11-12T07:43:37.099Z,6.93
2022-11-12T07:46:27.226Z,5.38
2022-11-12T07:49:14.297Z,9.95
2022-11-12T07:52:01.585Z,7.82
2022-11-12T07:54:48.495Z,12.45
2022-11-12T07:57:36.607Z,8.38
2022-11-12T08:00:24.067Z,8.50
2022-11-12T08:03:11.484Z,16.38
2022-11-12T08:06:01.795Z,9.73
2022-11-12T08:08:51.546Z,13.43
2022-11-12T08:11:38.385Z,8.27
2022-11-12T08:14:26.935Z,9.35
2022-11-12T08:17:13.815Z,12.63
2022-11-12T08:20:02.365Z,11.98
2022-11-12T08:22:49.685Z,14.82
2022-11-12T08:25:37.706Z,13.70
2022-11-12T08:28:25.160Z,12.68
2022-11-12T08:31:21.442Z,14.10
2022-11-12T08:34:17.402Z,12.85
2022-11-12T08:37:08.507Z,12.35
2022-11-12T08:39:55.900Z,9.30
2022-11-12T08:42:43.234Z,10.38
2022-11-12T08:45:32.537Z,12.07
2022-11-12T08:48:20.248Z,11.57
2022-11-12T08:51:07.618Z,12.25
2022-11-12T08:53:56.647Z,12.55
2022-11-12T08:56:43.571Z,10.88
2022-11-12T08:59:30.938Z,11.55
2022-11-12T09:02:18.178Z,17.45
2022-11-12T09:05:06.501Z,9.88
2022-11-12T09:08:01.728Z,9.93
2022-11-12T09:10:49.460Z,13.05
2022-11-12T09:13:36.893Z,13.57
2022-11-12T09:16:24.561Z,10.05
2022-11-12T09:19:11.570Z,14.00
2022-11-12T09:21:59.167Z,15.95
2022-11-12T09:24:46.301Z,12.65
2022-11-12T09:27:33.748Z,13.50
2022-11-12T09:30:20.680Z,12.32
2022-11-12T09:33:08.025Z,11.85
2022-11-12T09:35:55.413Z,19.50
2022-11-12T09:38:42.747Z,16.67
2022-11-12T09:41:40.331Z,13.60
2022-11-12T09:44:31.736Z,13.95
2022-11-12T09:47:31.105Z,17.20
2022-11-12T09:50:38.195Z,16.50
2022-11-12T09:54:00.637Z,15.02
2022-11-12T09:56:51.651Z,13.20
2022-11-12T09:59:39.912Z,12.02
2022-11-12T10:03:01.513Z,13.65
2022-11-12T10:06:12.264Z,17.45
2022-11-12T10:09:29.284Z,13.98
2022-11-12T10:12:44.276Z,16.13
2022-11-12T10:16:17.296Z,17.80
2022-11-12T10:19:35.492Z,15.68
2022-11-12T10:22:31.621Z,19.88
2022-11-12T10:25:20.175Z,19.08
2022-11-12T10:28:35.668Z,13.82
2022-11-12T10:31:25.552Z,14.82
2022-11-12T10:34:19.735Z,17.88
2022-11-12T10:37:10.954Z,16.08
2022-11-12T10:39:58.485Z,20.17
2022-11-12T10:43:21.632Z,19.48
2022-11-12T10:46:27.570Z,19.50
2022-11-12T10:49:14.778Z,16.65
2022-11-12T10:52:02.853Z,22.38
2022-11-12T10:54:55.010Z,19.50
2022-11-12T10:57:45.068Z,18.70
2022-11-12T11:00:33.072Z,20.90
2022-11-12T11:03:28.901Z,20.42
2022-11-12T11:06:16.515Z,23.83
2022-11-12T11:09:17.581Z,22.35
2022-11-12T11:12:08.773Z,22.65
2022-11-12T11:15:29.032Z,20.50
2022-11-12T11:18:16.302Z,19.88
2022-11-12T11:21:35.611Z,24.35
2022-11-12T11:24:42.682Z,22.77
2022-11-12T11:27:59.803Z,24.75
2022-11-12T11:31:03.272Z,26.55
2022-11-12T11:34:27.316Z,28.75
2022-11-12T11:37:32.833Z,27.90
2022-11-12T11:40:43.611Z,31.05
2022-11-12T11:44:03.390Z,32.28
2022-11-12T11:47:10.112Z,30.38
2022-11-12T11:50:25.982Z,35.90
2022-11-12T11:53:28.261Z,43.88
2022-11-12T11:56:28.601Z,42.40
2022-11-12T11:59:33.561Z,32.50
2022-11-12T12:03:05.795Z,27.35
2022-11-12T12:06:24.273Z,30.50
2022-11-12T12:09:44.173Z,28.63
2022-11-12T12:13:10.152Z,27.70
2022-11-12T12:16:35.011Z,25.73
2022-11-12T12:19:45.849Z,30.23
2022-11-12T12:23:02.583Z,24.83
2022-11-12T12:25:50.278Z,27.92
2022-11-12T12:28:46.212Z,27.63
2022-11-12T12:31:39.113Z,32.63
2022-11-12T12:34:34.110Z,26.58
2022-11-12T12:37:36.370Z,25.00
2022-11-12T12:40:26.821Z,31.73
2022-11-12T12:43:20.188Z,27.67
2022-11-12T12:46:07.804Z,27.50
2022-11-12T12:48:55.959Z,29.90
2022-11-12T12:51:43.448Z,27.48
2022-11-12T12:54:39.579Z,23.83
2022-11-12T12:57:39.629Z,28.73
2022-11-12T13:00:41.076Z,25.83
2022-11-12T13:03:44.541Z,22.67
2022-11-12T13:06:41.380Z,20.92
2022-11-12T13:09:29.545Z,20.35
2022-11-12T13:12:18.269Z,21.30
2022-11-12T13:15:16.993Z,26.17
2022-11-12T13:18:27.242Z,20.88
2022-11-12T13:21:19.944Z,23.00
2022-11-12T13:24:12.892Z,18.38
2022-11-12T13:27:00.238Z,22.65
2022-11-12T13:29:49.240Z,21.42
2022-11-12T13:32:46.559Z,25.23
2022-11-12T13:35:41.051Z,20.63
2022-11-12T13:38:28.609Z,20.63
2022-11-12T13:41:39.794Z,17.25
2022-11-12T13:44:27.106Z,21.88
2022-11-12T13:47:19.235Z,22.92
2022-11-12T13:50:09.084Z,23.45
2022-11-12T13:52:56.427Z,19.70
2022-11-12T13:55:51.225Z,20.77
2022-11-12T13:58:42.572Z,23.20
2022-11-12T14:01:33.667Z,25.17
2022-11-12T14:04:24.334Z,19.88
2022-11-12T14:07:41.966Z,19.77
2022-11-12T14:10:45.960Z,20.60
2022-11-12T14:14:15.105Z,21.88
2022-11-12T14:17:43.206Z,18.63
2022-11-12T14:20:40.445Z,17.52
2022-11-12T14:23:27.948Z,17.48
2022-11-12T14:26:33.105Z,18.38
2022-11-12T14:29:20.776Z,18.35
2022-11-12T14:32:09.864Z,18.45
2022-11-12T14:34:57.436Z,17.98
2022-11-12T14:37:49.266Z,21.50
2022-11-12T14:40:43.985Z,19.00
2022-11-12T14:43:43.745Z,16.27
2022-11-12T14:46:50.472Z,17.90
2022-11-12T14:49:44.931Z,18.98
2022-11-12T14:52:37.655Z,18.08
2022-11-12T14:55:34.569Z,16.77
2022-11-12T14:58:23.370Z,19.88
2022-11-12T15:02:26.565Z,20.45
2022-11-12T15:05:02.718Z,17.08
2022-11-12T15:08:06.418Z,17.05
2022-11-12T15:10:53.910Z,18.92
2022-11-12T15:13:41.614Z,15.90
2022-11-12T15:16:34.608Z,14.93
2022-11-12T15:19:28.743Z,18.77
2022-11-12T15:22:22.987Z,18.58
2022-11-12T15:25:28.682Z,18.52
2022-11-12T15:28:24.264Z,17.27
2022-11-12T15:31:20.604Z,17.85
2022-11-12T15:34:42.079Z,17.45
2022-11-12T15:37:31.191Z,14.63
2022-11-12T15:40:21.039Z,14.93
2022-11-12T15:43:19.052Z,15.40
2022-11-12T15:46:13.642Z,17.48
2022-11-12T15:49:00.592Z,24.00
2022-11-12T15:51:48.433Z,18.27
2022-11-12T15:54:40.708Z,17.40
2022-11-12T15:57:31.722Z,16.60
2022-11-12T16:00:21.649Z,23.60
2022-11-12T16:03:19.652Z,17.27
2022-11-12T16:06:09.386Z,20.30
2022-11-12T16:08:56.818Z,15.23
2022-11-12T16:11:44.197Z,18.50
2022-11-12T16:14:31.813Z,14.90
2022-11-12T16:17:19.121Z,18.98
2022-11-12T16:20:21.772Z,17.92
2022-11-12T16:23:08.968Z,17.85
2022-11-12T16:25:56.543Z,20.23
2022-11-12T16:28:44.177Z,18.08
2022-11-12T16:31:31.938Z,19.75
2022-11-12T16:34:19.522Z,18.15
2022-11-12T16:37:12.316Z,17.65
2022-11-12T16:39:59.796Z,17.35
2022-11-12T16:42:48.455Z,16.05
2022-11-12T16:45:43.052Z,16.92
2022-11-12T16:48:35.392Z,15.45
2022-11-12T16:51:23.547Z,15.90
2022-11-12T16:54:12.324Z,16.83
2022-11-12T16:56:59.607Z,20.17
2022-11-12T16:59:48.102Z,17.33
2022-11-12T17:02:39.231Z,18.88
2022-11-12T17:05:29.943Z,17.48
2022-11-12T17:08:17.153Z,21.35
2022-11-12T17:11:10.186Z,20.08
2022-11-12T17:13:57.622Z,22.45
2022-11-12T17:16:45.620Z,21.85
2022-11-12T17:19:32.516Z,16.92
2022-11-12T17:22:20.786Z,22.50
2022-11-12T17:25:09.953Z,16.38
2022-11-12T17:27:58.032Z,17.95
2022-11-12T17:30:44.962Z,18.27
2022-11-12T17:33:38.572Z,25.17
2022-11-12T17:36:27.817Z,20.58
2022-11-12T17:42:22.951Z,20.65
2022-11-12T17:45:10.822Z,17.38
2022-11-12T17:47:57.972Z,19.17
2022-11-12T17:50:45.602Z,18.58
2022-11-12T17:53:33.117Z,21.55
2022-11-12T17:56:23.532Z,19.95
2022-11-12T17:59:10.678Z,19.00
2022-11-12T18:01:58.091Z,18.15
2022-11-12T18:04:45.674Z,23.80
2022-11-12T18:07:34.452Z,23.30
2022-11-12T18:10:21.312Z,23.23
2022-11-12T18:13:08.923Z,22.77
2022-11-12T18:15:56.188Z,25.38
2022-11-12T18:18:43.901Z,18.45
2022-11-12T18:21:31.167Z,20.40
2022-11-12T18:24:18.642Z,21.75
2022-11-12T18:27:06.092Z,19.02
2022-11-12T18:29:54.312Z,21.50
2022-11-12T18:32:43.123Z,22.38
2022-11-12T18:35:30.837Z,17.00
2022-11-12T18:38:18.053Z,20.42
2022-11-12T18:41:15.822Z,26.02
2022-11-12T18:44:03.113Z,21.05
2022-11-12T18:46:50.401Z,22.50
2022-11-12T18:49:37.393Z,18.40
2022-11-12T18:52:24.952Z,23.10
2022-11-12T18:55:12.301Z,21.80
2022-11-12T18:57:59.663Z,20.65
2022-11-12T19:00:46.934Z,22.20
2022-11-12T19:03:37.349Z,18.65
2022-11-12T19:06:24.847Z,19.60
2022-11-12T19:09:14.214Z,23.73
2022-11-12T19:12:01.331Z,22.73
2022-11-12T19:14:49.033Z,20.90
2022-11-12T19:17:36.023Z,21.63
2022-11-12T19:20:23.272Z,21.48
2022-11-12T19:23:10.752Z,24.58
2022-11-12T19:26:04.044Z,20.25
2022-11-12T19:28:51.463Z,22.10
2022-11-12T19:31:39.052Z,22.13
2022-11-12T19:34:25.967Z,27.83
2022-11-12T19:37:32.364Z,18.85
2022-11-12T19:40:20.444Z,19.65
2022-11-12T19:43:08.760Z,21.77
2022-11-12T19:45:55.827Z,21.08
2022-11-12T19:48:44.824Z,21.60
2022-11-12T19:51:32.303Z,22.25
2022-11-12T19:54:19.953Z,20.67
2022-11-12T19:57:07.351Z,22.13
2022-11-12T19:59:54.982Z,20.02
2022-11-12T20:02:42.324Z,21.67
2022-11-12T20:05:30.553Z,20.45
2022-11-12T20:08:17.532Z,20.15
2022-11-12T20:11:05.753Z,19.33
2022-11-12T20:13:54.155Z,20.50
2022-11-12T20:16:42.925Z,25.38
2022-11-12T20:19:30.088Z,23.63
2022-11-12T20:22:17.796Z,22.13
2022-11-12T20:25:05.589Z,21.30
2022-11-12T20:27:52.987Z,21.88
2022-11-12T20:30:40.257Z,19.98
2022-11-12T20:33:28.001Z,24.40
2022-11-12T20:36:20.024Z,21.20
2022-11-12T20:39:08.311Z,23.08
2022-11-12T20:41:55.259Z,20.52
2022-11-12T20:44:42.613Z,25.70
2022-11-12T20:47:29.914Z,20.65
2022-11-12T20:50:17.603Z,21.80
2022-11-12T20:53:06.027Z,26.27
2022-11-12T20:55:53.642Z,22.67
2022-11-12T20:58:40.943Z,22.02
2022-11-12T21:01:30.337Z,25.48
2022-11-12T21:04:17.533Z,21.38
2022-11-12T21:07:06.491Z,26.13
2022-11-12T21:09:54.073Z,21.98
2022-11-12T21:12:41.516Z,22.55
2022-11-12T21:15:28.739Z,25.42
2022-11-12T21:18:16.326Z,26.73
2022-11-12T21:21:10.088Z,22.38
2022-11-12T21:24:03.411Z,21.08
2022-11-12T21:26:52.048Z,23.92
2022-11-12T21:29:39.597Z,21.75
2022-11-12T21:32:26.847Z,25.48
2022-11-12T21:35:14.142Z,24.75
2022-11-12T21:38:01.226Z,25.27
2022-11-12T21:40:48.424Z,24.17
2022-11-12T21:43:40.124Z,25.25
2022-11-12T21:46:30.979Z,24.42
2022-11-12T21:49:18.141Z,26.13
2022-11-12T21:52:05.609Z,25.02
2022-11-12T21:54:52.674Z,25.02
2022-11-12T21:57:39.844Z,22.55
2022-11-12T22:00:41.394Z,25.48
2022-11-12T22:03:32.297Z,23.20
2022-11-12T22:06:20.702Z,24.85
2022-11-12T22:09:08.033Z,23.85
2022-11-12T22:11:55.194Z,23.23
2022-11-12T22:14:43.902Z,23.38
2022-11-12T22:17:33.646Z,26.83
2022-11-12T22:20:20.758Z,23.63
2022-11-12T22:23:07.574Z,20.20
2022-11-12T22:25:58.158Z,25.92
2022-11-12T22:28:46.292Z,22.10
2022-11-12T22:31:33.683Z,21.77
2022-11-12T22:34:21.030Z,21.95
2022-11-12T22:37:08.180Z,22.48
2022-11-12T22:39:55.748Z,24.35
2022-11-12T22:42:42.820Z,28.45
2022-11-12T22:45:30.256Z,24.27
2022-11-12T22:48:17.498Z,21.60
2022-11-12T22:51:08.089Z,22.77
2022-11-12T22:53:58.937Z,26.98
2022-11-12T22:56:45.800Z,23.75
2022-11-12T22:59:34.673Z,21.25
2022-11-12T23:02:22.472Z,24.90
2022-11-12T23:05:09.588Z,24.88
2022-11-12T23:07:56.373Z,24.90
2022-11-12T23:10:45.940Z,21.55
2022-11-12T23:13:33.485Z,25.55
2022-11-12T23:16:24.432Z,20.38
2022-11-12T23:19:11.325Z,25.15
2022-11-12T23:22:02.835Z,21.63
2022-11-12T23:24:52.045Z,21.20
2022-11-12T23:27:39.823Z,23.52
2022-11-12T23:30:26.894Z,23.83
2022-11-12T23:33:15.392Z,23.90
2022-11-12T23:36:12.491Z,26.20
2022-11-12T23:39:02.009Z,25.08
2022-11-12T23:41:48.779Z,24.63
2022-11-12T23:44:35.973Z,23.00
2022-11-12T23:47:23.230Z,25.95
2022-11-12T23:50:11.367Z,20.75
2022-11-12T23:52:58.328Z,25.60
2022-11-12T23:55:47.123Z,23.55
2022-11-12T23:58:34.183Z,24.00
